Time;durP1;ratioP1;P1;durP2;ratioP2;P2;SDS_P1;SDS_P2;PMS_P1;PMS_P2;Temp;Humidity;BMP_temperature;BMP_pressure;BME280_temperature;BME280_humidity;BME280_pressure;Samples;Min_cycle;Max_cycle;Signal;HPM_P1;HPM_P2
2020/12/16 00:02:23;;;;;;;25.02;13.98;;;6.20;99.90;;;;;;5053122;28;20033;-74
2020/12/16 00:04:49;;;;;;;29.05;14.30;;;6.20;99.90;;;;;;5060552;28;20055;-74
2020/12/16 00:07:15;;;;;;;17.27;13.60;;;6.20;99.90;;;;;;5062368;28;20021;-74
2020/12/16 00:09:40;;;;;;;21.08;14.88;;;6.10;99.90;;;;;;5060705;28;20037;-74
2020/12/16 00:12:06;;;;;;;17.23;13.98;;;6.10;99.90;;;;;;5056801;28;20029;-74
2020/12/16 00:14:32;;;;;;;17.35;12.52;;;6.10;99.90;;;;;;5061052;28;20477;-74
2020/12/16 00:16:57;;;;;;;15.20;11.43;;;6.10;99.90;;;;;;5058171;28;20021;-74
2020/12/16 00:19:23;;;;;;;17.70;12.40;;;6.10;99.90;;;;;;5060506;28;20036;-74
2020/12/16 00:21:49;;;;;;;16.10;12.90;;;6.20;99.90;;;;;;5064410;28;20067;-74
2020/12/16 00:24:14;;;;;;;21.90;15.63;;;6.10;99.90;;;;;;5062784;28;20028;-73
2020/12/16 00:26:43;;;;;;;19.33;14.25;;;6.10;99.90;;;;;;5061419;28;20021;-74
2020/12/16 00:29:13;;;;;;;16.63;13.65;;;6.10;99.90;;;;;;5054985;28;20021;-73
2020/12/16 00:31:39;;;;;;;20.73;16.23;;;6.10;99.90;;;;;;5056949;28;20016;-74
2020/12/16 00:34:07;;;;;;;21.02;16.25;;;6.10;99.90;;;;;;5056725;28;20031;-74
2020/12/16 00:36:37;;;;;;;26.08;17.00;;;6.10;99.90;;;;;;5058457;28;20508;-74
2020/12/16 00:39:08;;;;;;;25.38;16.92;;;6.00;99.90;;;;;;5066749;28;20377;-74
2020/12/16 00:41:34;;;;;;;20.88;15.23;;;6.00;99.90;;;;;;5051750;28;20094;-74
2020/12/16 00:44:04;;;;;;;23.40;17.80;;;6.00;99.90;;;;;;5056759;28;20115;-74
2020/12/16 00:46:30;;;;;;;18.95;14.02;;;6.00;99.90;;;;;;5056751;28;20029;-74
2020/12/16 00:48:55;;;;;;;19.83;15.50;;;6.00;99.90;;;;;;5052258;28;20039;-74
2020/12/16 00:51:21;;;;;;;19.45;14.15;;;6.00;99.90;;;;;;5056007;28;20033;-74
2020/12/16 00:53:47;;;;;;;20.88;15.43;;;6.00;99.90;;;;;;5055820;28;20049;-74
2020/12/16 00:56:13;;;;;;;21.30;15.10;;;6.00;99.90;;;;;;5052350;28;20134;-74
2020/12/16 00:58:39;;;;;;;17.98;14.07;;;6.00;99.90;;;;;;5053300;28;20082;-74
2020/12/16 01:01:05;;;;;;;20.58;15.05;;;5.90;99.90;;;;;;5051135;28;20033;-73
2020/12/16 01:03:32;;;;;;;22.15;17.00;;;5.90;99.90;;;;;;5045728;28;20116;-74
2020/12/16 01:05:58;;;;;;;21.48;16.27;;;6.00;99.90;;;;;;5053567;28;20099;-74
2020/12/16 01:08:23;;;;;;;19.65;15.90;;;6.00;99.90;;;;;;5053691;28;20505;-73
2020/12/16 01:10:49;;;;;;;21.23;15.68;;;5.90;99.90;;;;;;5054351;28;20131;-73
2020/12/16 01:13:15;;;;;;;18.25;14.55;;;6.00;99.90;;;;;;5059509;28;20025;-74
2020/12/16 01:15:41;;;;;;;20.40;16.20;;;6.00;99.90;;;;;;5053036;28;20071;-73
2020/12/16 01:18:07;;;;;;;23.30;16.55;;;5.90;99.90;;;;;;5054576;28;20032;-73
2020/12/16 01:20:32;;;;;;;20.77;16.08;;;5.90;99.90;;;;;;5056114;28;20029;-73
2020/12/16 01:22:58;;;;;;;19.63;15.52;;;5.90;99.90;;;;;;5062340;28;20024;-73
2020/12/16 01:25:24;;;;;;;24.23;16.20;;;5.80;99.90;;;;;;5053810;28;20037;-73
2020/12/16 01:27:54;;;;;;;22.75;15.85;;;5.70;99.90;;;;;;5051625;28;20115;-73
2020/12/16 01:30:20;;;;;;;17.15;14.93;;;5.70;99.90;;;;;;5052850;28;20083;-73
2020/12/16 01:32:46;;;;;;;17.73;13.73;;;5.70;99.90;;;;;;5052054;28;20020;-73
2020/12/16 01:35:12;;;;;;;18.00;14.98;;;5.60;99.90;;;;;;5051972;28;20033;-73
2020/12/16 01:37:38;;;;;;;19.38;15.25;;;5.60;99.90;;;;;;5054402;28;20032;-73
2020/12/16 01:40:05;;;;;;;18.80;15.50;;;5.60;99.90;;;;;;5055491;28;20024;-73
2020/12/16 01:42:31;;;;;;;20.05;14.80;;;5.60;99.90;;;;;;5059165;28;20031;-73
2020/12/16 01:44:57;;;;;;;19.85;14.55;;;5.60;99.90;;;;;;5058309;28;20056;-73
2020/12/16 01:47:23;;;;;;;22.80;15.35;;;5.60;99.90;;;;;;5064749;28;20012;-73
2020/12/16 01:49:49;;;;;;;19.38;15.27;;;5.50;99.90;;;;;;5062880;28;20028;-73
2020/12/16 01:52:19;;;;;;;19.58;14.82;;;5.50;99.90;;;;;;5060699;28;20071;-73
2020/12/16 01:54:45;;;;;;;17.98;13.57;;;5.60;99.90;;;;;;5054384;28;20086;-73
2020/12/16 01:57:13;;;;;;;16.75;12.82;;;5.60;99.90;;;;;;5059545;28;20419;-73
2020/12/16 01:59:40;;;;;;;18.98;15.38;;;5.60;99.90;;;;;;5056473;28;20111;-73
2020/12/16 02:02:12;;;;;;;25.95;17.40;;;5.60;99.90;;;;;;5060035;28;20032;-73
2020/12/16 02:04:43;;;;;;;19.80;14.20;;;5.60;99.90;;;;;;5059152;28;20052;-73
2020/12/16 02:07:11;;;;;;;18.15;13.82;;;5.60;99.90;;;;;;5069547;28;20061;-73
2020/12/16 02:09:46;;;;;;;17.83;14.25;;;5.50;99.90;;;;;;5052636;28;20033;-72
2020/12/16 02:12:22;;;;;;;21.35;15.95;;;5.60;99.90;;;;;;5059947;28;20032;-73
2020/12/16 02:14:48;;;;;;;24.73;16.23;;;5.50;99.90;;;;;;5063880;28;20056;-73
2020/12/16 02:17:14;;;;;;;21.77;15.52;;;5.60;99.90;;;;;;5062990;28;20048;-73
2020/12/16 02:19:54;;;;;;;22.75;15.57;;;5.60;99.90;;;;;;5057650;28;20109;-73
2020/12/16 02:22:20;;;;;;;20.65;15.13;;;5.60;99.90;;;;;;5056653;28;20108;-72
2020/12/16 02:25:03;;;;;;;18.85;13.00;;;5.60;99.90;;;;;;5052324;28;20082;-72
2020/12/16 02:27:29;;;;;;;17.80;11.88;;;5.60;99.90;;;;;;5058483;28;20034;-72
2020/12/16 02:29:55;;;;;;;16.15;10.60;;;5.50;99.90;;;;;;5056226;28;20108;-72
2020/12/16 02:32:25;;;;;;;18.35;11.95;;;5.60;99.90;;;;;;5052767;28;20024;-72
2020/12/16 02:34:51;;;;;;;16.17;11.10;;;5.60;99.90;;;;;;5050831;28;20029;-72
2020/12/16 02:37:18;;;;;;;15.80;11.50;;;5.60;99.90;;;;;;5051350;28;20021;-72
2020/12/16 02:39:44;;;;;;;17.30;11.70;;;5.50;99.90;;;;;;5055737;28;20112;-72
2020/12/16 02:42:10;;;;;;;18.70;11.52;;;5.50;99.90;;;;;;5052116;28;20021;-72
2020/12/16 02:44:36;;;;;;;26.05;12.73;;;5.40;99.90;;;;;;5050348;28;20037;-72
2020/12/16 02:47:03;;;;;;;25.52;12.93;;;5.30;99.90;;;;;;5052352;28;20492;-72
2020/12/16 02:49:29;;;;;;;29.88;16.88;;;5.30;99.90;;;;;;5050667;28;20036;-72
2020/12/16 02:51:55;;;;;;;24.10;15.35;;;5.30;99.90;;;;;;5053898;28;20021;-72
2020/12/16 02:54:23;;;;;;;27.88;15.35;;;5.30;99.90;;;;;;5055677;28;20021;-73
2020/12/16 02:56:54;;;;;;;29.83;16.27;;;5.30;99.90;;;;;;5057633;28;20146;-72
2020/12/16 02:59:25;;;;;;;26.27;14.65;;;5.30;99.90;;;;;;5055787;28;20070;-72
2020/12/16 03:01:55;;;;;;;26.92;15.68;;;5.30;99.90;;;;;;5055492;28;20478;-73
2020/12/16 03:04:22;;;;;;;25.42;15.10;;;5.30;99.90;;;;;;5058113;28;20039;-72
2020/12/16 03:06:49;;;;;;;17.98;12.15;;;5.30;99.90;;;;;;5055404;28;20421;-72
2020/12/16 03:09:16;;;;;;;21.63;12.57;;;5.30;99.90;;;;;;5056729;28;20021;-72
2020/12/16 03:11:42;;;;;;;18.90;13.20;;;5.30;99.90;;;;;;5060757;28;20170;-73
2020/12/16 03:14:08;;;;;;;22.13;14.70;;;5.20;99.90;;;;;;5056045;28;20017;-72
2020/12/16 03:16:34;;;;;;;26.40;15.77;;;5.20;99.90;;;;;;5065372;28;20040;-72
2020/12/16 03:18:59;;;;;;;35.70;14.80;;;5.20;99.90;;;;;;5061616;28;20029;-72
2020/12/16 03:21:26;;;;;;;60.95;17.60;;;5.20;99.90;;;;;;5061063;28;20024;-72
2020/12/16 03:23:53;;;;;;;76.63;17.13;;;5.10;99.90;;;;;;5055842;28;20025;-73
2020/12/16 03:26:19;;;;;;;66.53;17.42;;;5.00;99.90;;;;;;5057545;28;20031;-72
2020/12/16 03:28:45;;;;;;;68.85;18.20;;;5.00;99.90;;;;;;5061567;28;20025;-73
2020/12/16 03:31:12;;;;;;;41.72;16.15;;;5.10;99.90;;;;;;5055124;28;20056;-72
2020/12/16 03:33:42;;;;;;;38.30;16.60;;;5.10;99.90;;;;;;5054682;28;20597;-72
2020/12/16 03:36:19;;;;;;;46.40;16.95;;;5.10;99.90;;;;;;5054303;28;20024;-72
2020/12/16 03:38:46;;;;;;;34.22;16.88;;;5.10;99.90;;;;;;5058145;28;20035;-72
2020/12/16 03:41:14;;;;;;;30.10;16.45;;;5.10;99.90;;;;;;5056017;28;20028;-72
2020/12/16 03:43:40;;;;;;;31.35;16.60;;;5.10;99.90;;;;;;5056778;28;20040;-72
2020/12/16 03:46:09;;;;;;;33.63;16.13;;;5.10;99.90;;;;;;5051709;28;20037;-72
2020/12/16 03:48:36;;;;;;;32.75;15.88;;;5.10;99.90;;;;;;5054886;28;20033;-72
2020/12/16 03:51:09;;;;;;;33.72;16.55;;;5.00;99.90;;;;;;5055157;28;20036;-72
2020/12/16 03:53:36;;;;;;;40.65;18.40;;;5.00;99.90;;;;;;5063555;28;20111;-72
2020/12/16 03:56:13;;;;;;;73.10;19.38;;;5.00;99.90;;;;;;5054086;28;20017;-73
2020/12/16 03:58:48;;;;;;;57.88;18.38;;;4.90;99.90;;;;;;5055730;28;20355;-72
2020/12/16 04:01:16;;;;;;;74.43;17.23;;;4.90;99.90;;;;;;5052370;28;20037;-72
2020/12/16 04:03:42;;;;;;;64.00;17.25;;;4.90;99.90;;;;;;5052993;28;20041;-72
2020/12/16 04:06:11;;;;;;;56.60;17.17;;;5.00;99.90;;;;;;5055900;28;20485;-72
2020/12/16 04:08:40;;;;;;;101.03;20.35;;;5.00;99.90;;;;;;5054694;28;20013;-72
2020/12/16 04:11:15;;;;;;;85.85;17.92;;;5.00;99.90;;;;;;5057550;28;20392;-72
2020/12/16 04:13:41;;;;;;;65.97;17.25;;;5.00;99.90;;;;;;5055116;28;20013;-72
2020/12/16 04:16:12;;;;;;;99.78;19.23;;;5.10;99.90;;;;;;5056006;28;20480;-72
2020/12/16 04:18:38;;;;;;;110.25;22.45;;;5.10;99.90;;;;;;5053848;28;20048;-72
2020/12/16 04:21:04;;;;;;;100.70;21.35;;;5.10;99.90;;;;;;5055928;28;20741;-72
2020/12/16 04:23:30;;;;;;;61.45;18.00;;;5.00;99.90;;;;;;5053597;28;20385;-72
2020/12/16 04:25:56;;;;;;;96.65;21.50;;;5.00;99.90;;;;;;5056550;28;20036;-73
2020/12/16 04:28:21;;;;;;;77.28;19.48;;;5.00;99.90;;;;;;5055530;28;20017;-72
2020/12/16 04:30:47;;;;;;;53.08;16.13;;;4.90;99.90;;;;;;5063075;28;20033;-72
2020/12/16 04:33:12;;;;;;;66.20;19.75;;;4.90;99.90;;;;;;5058964;28;20409;-72
2020/12/16 04:35:38;;;;;;;74.65;20.13;;;5.00;99.90;;;;;;5062973;28;20028;-72
2020/12/16 04:38:04;;;;;;;42.38;17.83;;;5.00;99.90;;;;;;5064564;28;20864;-72
2020/12/16 04:40:29;;;;;;;30.63;17.02;;;4.90;99.90;;;;;;5059404;28;20060;-72
2020/12/16 04:43:10;;;;;;;29.65;17.08;;;4.80;99.90;;;;;;5066279;28;20485;-73
2020/12/16 04:45:39;;;;;;;28.77;16.95;;;4.80;99.90;;;;;;5058270;28;20029;-72
2020/12/16 04:48:06;;;;;;;38.58;20.02;;;4.70;99.90;;;;;;5060984;28;20032;-72
2020/12/16 04:50:32;;;;;;;27.63;15.32;;;4.80;99.90;;;;;;5056675;28;20044;-72
2020/12/16 04:53:03;;;;;;;28.52;17.70;;;4.80;99.90;;;;;;5055490;28;20036;-72
2020/12/16 04:55:30;;;;;;;31.45;18.58;;;4.80;99.90;;;;;;5062063;28;20573;-72
2020/12/16 04:57:55;;;;;;;30.10;18.40;;;4.70;99.90;;;;;;5055876;28;20021;-72
2020/12/16 05:00:22;;;;;;;24.77;16.38;;;4.80;99.90;;;;;;5060838;28;20021;-72
2020/12/16 05:03:03;;;;;;;25.65;15.52;;;4.80;99.90;;;;;;5056107;28;20024;-72
2020/12/16 05:05:29;;;;;;;24.38;15.75;;;4.90;99.90;;;;;;5064258;28;20028;-72
2020/12/16 05:07:55;;;;;;;40.55;19.52;;;4.90;99.90;;;;;;5063006;28;20016;-72
2020/12/16 05:10:41;;;;;;;29.02;15.23;;;5.00;99.90;;;;;;5058855;28;20021;-72
2020/12/16 05:13:15;;;;;;;26.25;14.90;;;5.00;99.90;;;;;;5067655;28;20444;-72
2020/12/16 05:15:42;;;;;;;29.77;17.33;;;5.00;99.90;;;;;;5054191;28;20123;-72
2020/12/16 05:18:14;;;;;;;27.88;16.27;;;5.00;99.90;;;;;;5060807;28;20094;-72
2020/12/16 05:20:49;;;;;;;28.87;17.27;;;4.90;99.90;;;;;;5061974;28;20834;-72
2020/12/16 05:23:16;;;;;;;39.95;19.02;;;4.90;99.90;;;;;;5052564;28;20307;-72
2020/12/16 05:26:01;;;;;;;35.55;17.85;;;4.90;99.90;;;;;;5058966;28;20060;-72
2020/12/16 05:28:36;;;;;;;26.40;16.45;;;4.80;99.90;;;;;;5061107;28;20377;-72
2020/12/16 05:31:07;;;;;;;40.92;18.95;;;4.90;99.90;;;;;;5057590;28;20103;-72
2020/12/16 05:33:47;;;;;;;33.03;17.13;;;4.80;99.90;;;;;;5053442;28;20155;-72
2020/12/16 05:36:30;;;;;;;38.67;19.98;;;4.90;99.90;;;;;;5060827;28;20077;-72
2020/12/16 05:38:57;;;;;;;25.30;15.70;;;4.90;99.90;;;;;;5068193;28;20055;-72
2020/12/16 05:41:31;;;;;;;34.90;19.15;;;4.90;99.90;;;;;;5056022;28;20040;-72
2020/12/16 05:44:24;;;;;;;29.77;17.13;;;4.90;99.90;;;;;;5056636;28;20052;-73
2020/12/16 05:46:51;;;;;;;28.73;17.15;;;4.90;99.90;;;;;;5057513;28;20032;-72
2020/12/16 05:49:30;;;;;;;25.33;15.98;;;4.90;99.90;;;;;;5063116;28;20027;-73
2020/12/16 05:51:57;;;;;;;32.13;17.33;;;4.90;99.90;;;;;;5053772;28;20029;-72
2020/12/16 05:54:23;;;;;;;24.73;15.68;;;4.90;99.90;;;;;;5052532;28;20096;-72
2020/12/16 05:57:12;;;;;;;24.95;16.35;;;4.90;99.90;;;;;;5063966;28;20111;-72
2020/12/16 05:59:38;;;;;;;27.55;17.77;;;4.90;99.90;;;;;;5062311;28;20025;-73
2020/12/16 06:02:06;;;;;;;27.20;16.15;;;4.90;99.90;;;;;;5051194;28;20108;-73
2020/12/16 06:04:36;;;;;;;21.73;14.23;;;4.90;99.90;;;;;;5058808;28;20043;-72
2020/12/16 06:07:03;;;;;;;34.65;17.52;;;4.80;99.90;;;;;;5058028;28;20055;-73
2020/12/16 06:09:31;;;;;;;31.20;15.27;;;4.80;99.90;;;;;;5058354;28;20036;-72
2020/12/16 06:12:05;;;;;;;29.25;15.90;;;4.80;99.90;;;;;;5053702;28;20060;-72
2020/12/16 06:14:34;;;;;;;21.55;14.05;;;4.80;99.90;;;;;;5056672;28;20047;-72
2020/12/16 06:17:09;;;;;;;19.75;13.70;;;4.80;99.90;;;;;;5059581;28;20083;-72
2020/12/16 06:19:35;;;;;;;21.83;13.82;;;4.80;99.90;;;;;;5058724;28;20157;-72
2020/12/16 06:22:07;;;;;;;23.48;14.15;;;4.70;99.90;;;;;;5060340;28;20020;-72
2020/12/16 06:24:42;;;;;;;26.73;15.87;;;4.70;99.90;;;;;;5066458;28;20032;-73
2020/12/16 06:27:10;;;;;;;26.70;16.30;;;4.60;99.90;;;;;;5061228;28;20025;-72
2020/12/16 06:29:45;;;;;;;25.75;15.48;;;4.60;99.90;;;;;;5072630;28;20031;-72
2020/12/16 06:32:23;;;;;;;22.30;14.70;;;4.60;99.90;;;;;;5060862;28;20025;-72
2020/12/16 06:34:52;;;;;;;26.67;15.63;;;4.60;99.90;;;;;;5062501;28;20493;-72
2020/12/16 06:37:18;;;;;;;27.45;16.58;;;4.70;99.90;;;;;;5061826;28;20029;-72
2020/12/16 06:39:43;;;;;;;19.50;14.55;;;4.60;99.90;;;;;;5062395;28;20495;-72
2020/12/16 06:42:09;;;;;;;20.73;13.55;;;4.70;99.90;;;;;;5061374;28;20060;-72
2020/12/16 06:44:35;;;;;;;21.83;15.63;;;4.60;99.90;;;;;;5065026;28;20047;-73
2020/12/16 06:47:02;;;;;;;29.75;15.95;;;4.60;99.90;;;;;;5066405;28;20021;-72
2020/12/16 06:49:31;;;;;;;21.67;14.02;;;4.60;99.90;;;;;;5063413;28;20073;-72
2020/12/16 06:52:03;;;;;;;27.23;16.52;;;4.70;99.90;;;;;;5058889;28;20021;-72
2020/12/16 06:54:52;;;;;;;23.98;14.65;;;4.70;99.90;;;;;;5067351;28;20111;-72
2020/12/16 06:57:20;;;;;;;20.85;14.50;;;4.60;99.90;;;;;;5061511;28;20482;-73
2020/12/16 06:59:57;;;;;;;21.27;15.15;;;4.60;99.90;;;;;;5060761;28;20531;-73
2020/12/16 07:02:35;;;;;;;19.02;12.30;;;4.40;99.90;;;;;;5062105;28;20020;-73
2020/12/16 07:05:03;;;;;;;20.98;13.25;;;4.20;99.90;;;;;;5063808;28;20378;-73
2020/12/16 07:07:44;;;;;;;21.85;14.30;;;4.10;99.90;;;;;;5066905;28;20020;-72
2020/12/16 07:10:34;;;;;;;22.85;15.38;;;4.10;99.90;;;;;;5058968;28;20508;-72
2020/12/16 07:13:29;;;;;;;28.00;15.70;;;4.10;99.90;;;;;;5056025;28;20390;-72
2020/12/16 07:15:59;;;;;;;33.28;19.73;;;4.20;99.90;;;;;;5065684;28;20036;-73
2020/12/16 07:18:31;;;;;;;38.95;20.55;;;4.50;99.90;;;;;;5071154;28;20373;-72
2020/12/16 07:21:09;;;;;;;26.63;16.17;;;4.40;99.90;;;;;;5067140;28;20052;-72
2020/12/16 07:24:07;;;;;;;29.48;18.42;;;4.50;99.90;;;;;;5064125;28;20035;-72
2020/12/16 07:26:46;;;;;;;37.97;20.75;;;4.60;99.90;;;;;;5060088;28;20025;-73
2020/12/16 07:29:32;;;;;;;28.08;16.73;;;4.80;99.90;;;;;;5065099;28;20109;-72
2020/12/16 07:32:01;;;;;;;30.98;18.70;;;4.80;99.90;;;;;;5055622;28;20112;-72
2020/12/16 07:34:27;;;;;;;32.42;18.25;;;4.80;99.90;;;;;;5061911;28;20079;-72
2020/12/16 07:36:58;;;;;;;29.13;15.93;;;4.90;99.90;;;;;;5058129;28;20029;-72
2020/12/16 07:39:25;;;;;;;33.65;17.85;;;4.90;99.90;;;;;;5065391;28;20029;-72
2020/12/16 07:41:50;;;;;;;30.80;16.88;;;4.90;99.90;;;;;;5057229;28;20108;-72
2020/12/16 07:44:16;;;;;;;30.45;18.38;;;4.90;99.90;;;;;;5062215;28;20116;-73
2020/12/16 07:46:42;;;;;;;33.15;19.63;;;4.90;99.90;;;;;;5059574;28;20029;-72
2020/12/16 07:49:15;;;;;;;35.45;17.13;;;4.90;99.90;;;;;;5062887;28;20028;-72
2020/12/16 07:51:41;;;;;;;25.95;16.05;;;4.90;99.90;;;;;;5059316;28;20587;-72
2020/12/16 07:54:07;;;;;;;29.35;17.70;;;4.90;99.90;;;;;;5056636;28;20103;-72
2020/12/16 07:56:33;;;;;;;26.33;16.17;;;4.90;99.90;;;;;;5059088;28;20029;-72
2020/12/16 07:59:09;;;;;;;30.58;17.95;;;4.90;99.90;;;;;;5061372;28;20063;-72
2020/12/16 08:01:34;;;;;;;34.58;18.27;;;4.90;99.90;;;;;;5057636;28;20021;-72
2020/12/16 08:04:00;;;;;;;33.38;18.55;;;4.90;99.90;;;;;;5054063;28;20036;-71
2020/12/16 08:06:26;;;;;;;83.13;19.90;;;4.90;99.90;;;;;;5051487;28;20072;-72
2020/12/16 08:08:52;;;;;;;34.45;16.65;;;4.80;99.90;;;;;;5052211;28;20033;-71
2020/12/16 08:11:20;;;;;;;32.03;16.60;;;4.80;99.90;;;;;;5052470;28;20033;-71
2020/12/16 08:13:49;;;;;;;36.03;17.95;;;4.80;99.90;;;;;;5052919;28;20033;-72
2020/12/16 08:16:15;;;;;;;38.20;18.63;;;4.80;99.90;;;;;;5054898;28;20030;-72
2020/12/16 08:18:48;;;;;;;36.40;18.30;;;4.80;99.90;;;;;;5057910;28;20098;-72
2020/12/16 08:21:22;;;;;;;26.52;14.95;;;4.80;99.90;;;;;;5053799;28;20025;-72
2020/12/16 08:23:49;;;;;;;33.20;18.98;;;4.70;99.90;;;;;;5055322;28;20047;-72
2020/12/16 08:26:16;;;;;;;36.97;20.45;;;4.70;99.90;;;;;;5058658;28;20039;-72
2020/12/16 08:28:42;;;;;;;37.88;19.23;;;4.80;99.90;;;;;;5053004;28;20036;-72
2020/12/16 08:31:07;;;;;;;24.90;15.07;;;4.80;99.90;;;;;;5056678;28;20741;-72
2020/12/16 08:33:34;;;;;;;32.28;16.73;;;4.80;99.90;;;;;;5056188;28;20031;-72
2020/12/16 08:36:06;;;;;;;37.13;18.10;;;4.80;99.90;;;;;;5062796;28;20116;-73
2020/12/16 08:38:38;;;;;;;27.67;16.77;;;4.70;99.90;;;;;;5063527;28;20032;-72
2020/12/16 08:41:05;;;;;;;50.42;20.27;;;4.60;99.90;;;;;;5062465;28;20028;-72
2020/12/16 08:43:35;;;;;;;40.92;20.27;;;4.60;99.90;;;;;;5059510;28;20031;-71
2020/12/16 08:46:26;;;;;;;49.30;19.95;;;4.70;99.90;;;;;;5057285;28;20032;-71
2020/12/16 08:49:00;;;;;;;34.28;18.67;;;4.70;99.90;;;;;;5056098;28;20044;-70
2020/12/16 08:51:32;;;;;;;41.38;22.65;;;4.80;99.90;;;;;;5060040;28;20047;-71
2020/12/16 08:54:00;;;;;;;45.00;21.55;;;4.80;99.90;;;;;;5057339;28;20032;-70
2020/12/16 08:56:39;;;;;;;42.90;22.33;;;4.80;99.90;;;;;;5056083;28;20390;-70
2020/12/16 08:59:04;;;;;;;90.15;27.85;;;4.90;99.90;;;;;;5057225;28;20505;-71
2020/12/16 09:01:31;;;;;;;48.42;23.90;;;4.90;99.90;;;;;;5054555;28;20036;-71
2020/12/16 09:03:57;;;;;;;39.58;20.88;;;5.00;99.90;;;;;;5053053;28;20417;-72
2020/12/16 09:06:22;;;;;;;43.60;21.88;;;5.00;99.90;;;;;;5051690;28;20461;-71
2020/12/16 09:08:48;;;;;;;61.25;24.75;;;5.10;99.90;;;;;;5056338;28;20040;-70
2020/12/16 09:11:17;;;;;;;49.00;25.63;;;5.00;99.90;;;;;;5051948;28;20529;-71
2020/12/16 09:13:43;;;;;;;47.20;24.75;;;5.10;99.90;;;;;;5053812;28;20063;-71
2020/12/16 09:16:09;;;;;;;64.97;29.30;;;5.30;99.90;;;;;;5056910;28;20024;-72
2020/12/16 09:18:38;;;;;;;39.28;23.25;;;5.30;99.90;;;;;;5054813;28;20027;-72
2020/12/16 09:21:05;;;;;;;160.25;37.58;;;5.40;99.90;;;;;;5056150;28;20077;-72
2020/12/16 09:23:31;;;;;;;44.53;23.85;;;5.40;99.90;;;;;;5054699;28;20063;-72
2020/12/16 09:25:57;;;;;;;44.25;24.50;;;5.50;99.90;;;;;;5054828;28;20028;-72
2020/12/16 09:28:38;;;;;;;43.08;23.85;;;5.50;99.90;;;;;;5055597;28;20493;-72
2020/12/16 09:31:13;;;;;;;53.83;28.38;;;5.50;99.90;;;;;;5055482;28;20029;-73
2020/12/16 09:33:39;;;;;;;48.20;26.67;;;5.70;99.90;;;;;;5051866;28;20043;-71
2020/12/16 09:36:05;;;;;;;61.22;29.75;;;5.80;99.90;;;;;;5053311;28;20017;-72
2020/12/16 09:38:30;;;;;;;82.30;34.30;;;6.00;99.90;;;;;;5054615;28;20036;-72
2020/12/16 09:41:00;;;;;;;59.83;27.50;;;6.00;99.90;;;;;;5051314;28;20033;-72
2020/12/16 09:43:41;;;;;;;52.55;27.73;;;6.00;99.90;;;;;;5056441;28;20086;-72
2020/12/16 09:46:14;;;;;;;57.88;29.10;;;6.10;99.90;;;;;;5051451;28;20044;-71
2020/12/16 09:48:40;;;;;;;52.20;26.33;;;6.20;99.90;;;;;;5052105;28;20025;-71
2020/12/16 09:51:19;;;;;;;53.85;27.95;;;6.20;99.90;;;;;;5055145;28;20038;-72
2020/12/16 09:53:48;;;;;;;51.67;27.35;;;6.30;99.90;;;;;;5051020;28;20023;-72
2020/12/16 09:56:27;;;;;;;52.70;26.55;;;6.50;99.90;;;;;;5057263;28;20029;-73
2020/12/16 09:58:54;;;;;;;60.65;30.33;;;6.50;99.90;;;;;;5052052;28;20052;-73
2020/12/16 10:01:20;;;;;;;50.67;27.70;;;6.60;99.90;;;;;;5053448;28;20099;-72
2020/12/16 10:03:50;;;;;;;79.53;32.47;;;6.60;99.90;;;;;;5052411;28;20478;-72
2020/12/16 10:06:17;;;;;;;71.30;30.98;;;6.70;99.90;;;;;;5059712;28;20052;-72
2020/12/16 10:08:43;;;;;;;76.30;32.17;;;6.70;99.90;;;;;;5054220;28;20048;-72
2020/12/16 10:11:13;;;;;;;70.20;31.20;;;6.80;99.90;;;;;;5061176;28;20519;-72
2020/12/16 10:13:40;;;;;;;85.10;34.05;;;6.80;99.90;;;;;;5065604;28;20090;-71
2020/12/16 10:16:07;;;;;;;56.85;30.13;;;6.80;99.90;;;;;;5057255;28;20521;-72
2020/12/16 10:18:33;;;;;;;73.10;34.17;;;6.90;99.90;;;;;;5056648;28;20021;-72
2020/12/16 10:20:59;;;;;;;53.65;29.30;;;7.00;99.90;;;;;;5053748;28;20033;-72
2020/12/16 10:23:25;;;;;;;72.78;30.30;;;7.00;99.90;;;;;;5054745;28;20025;-72
2020/12/16 10:25:50;;;;;;;75.57;32.25;;;7.10;99.90;;;;;;5051376;28;20457;-72
2020/12/16 10:28:16;;;;;;;60.33;29.90;;;7.10;99.90;;;;;;5056591;28;20075;-72
2020/12/16 10:30:42;;;;;;;67.13;30.65;;;7.20;99.90;;;;;;5059013;28;20031;-72
2020/12/16 10:33:08;;;;;;;49.95;26.42;;;7.20;99.90;;;;;;5054260;28;20105;-72
2020/12/16 10:35:33;;;;;;;72.63;32.00;;;7.30;99.90;;;;;;5054536;28;22052;-72
2020/12/16 10:37:59;;;;;;;67.55;29.98;;;7.30;99.90;;;;;;5053342;28;20033;-72
2020/12/16 10:40:26;;;;;;;61.97;29.92;;;7.40;99.90;;;;;;5052121;28;20044;-73
2020/12/16 10:42:51;;;;;;;125.72;38.45;;;7.50;99.90;;;;;;5053517;28;20386;-72
2020/12/16 10:45:17;;;;;;;67.68;33.60;;;7.50;99.90;;;;;;5053123;28;20029;-72
2020/12/16 10:47:43;;;;;;;66.20;32.17;;;7.60;99.90;;;;;;5063546;28;20028;-72
2020/12/16 10:50:09;;;;;;;55.05;29.00;;;7.70;99.90;;;;;;5065028;28;20016;-73
2020/12/16 10:52:35;;;;;;;57.72;29.70;;;7.70;99.90;;;;;;5067434;28;20044;-72
2020/12/16 10:55:01;;;;;;;55.03;30.08;;;7.70;99.90;;;;;;5053294;28;20497;-72
2020/12/16 10:57:26;;;;;;;49.63;28.63;;;7.80;99.90;;;;;;5060343;28;20059;-72
2020/12/16 10:59:52;;;;;;;46.95;27.33;;;7.90;99.90;;;;;;5064712;28;20021;-72
2020/12/16 11:02:18;;;;;;;59.55;30.08;;;8.00;99.90;;;;;;5058166;28;20021;-73
2020/12/16 11:04:44;;;;;;;62.42;31.92;;;8.10;99.90;;;;;;5060961;28;20037;-72
2020/12/16 11:07:10;;;;;;;51.90;27.67;;;8.10;99.90;;;;;;5055687;28;20035;-73
2020/12/16 11:09:36;;;;;;;50.28;25.55;;;8.20;99.90;;;;;;5057020;28;20233;-72
2020/12/16 11:12:01;;;;;;;47.75;25.27;;;8.20;99.90;;;;;;5056587;28;20162;-73
2020/12/16 11:14:27;;;;;;;57.88;29.77;;;8.30;99.90;;;;;;5058111;28;20531;-73
2020/12/16 11:16:54;;;;;;;49.25;26.25;;;8.30;99.90;;;;;;5057924;28;20462;-73
2020/12/16 11:19:20;;;;;;;46.55;26.73;;;8.30;99.90;;;;;;5062565;28;20027;-74
2020/12/16 11:21:51;;;;;;;48.58;24.65;;;8.40;99.90;;;;;;5063503;28;20095;-74
2020/12/16 11:24:19;;;;;;;44.22;25.50;;;8.40;99.90;;;;;;5068579;28;20025;-74
2020/12/16 11:26:47;;;;;;;40.33;21.85;;;8.40;99.90;;;;;;5061784;28;20380;-73
2020/12/16 11:29:15;;;;;;;46.38;25.13;;;8.50;99.90;;;;;;5054398;28;20025;-73
2020/12/16 11:31:47;;;;;;;49.17;25.42;;;8.60;99.90;;;;;;5053704;28;20099;-74
2020/12/16 11:34:18;;;;;;;43.80;24.17;;;8.60;99.90;;;;;;5054571;28;20022;-73
2020/12/16 11:36:46;;;;;;;34.50;21.92;;;8.70;99.90;;;;;;5055237;28;20048;-74
2020/12/16 11:39:12;;;;;;;43.92;23.92;;;8.70;99.90;;;;;;5057545;28;20013;-73
2020/12/16 11:41:45;;;;;;;36.35;21.00;;;8.70;99.90;;;;;;5060302;28;20111;-73
2020/12/16 11:44:14;;;;;;;39.35;22.52;;;8.70;99.90;;;;;;5065421;28;20112;-73
2020/12/16 11:46:40;;;;;;;36.60;21.98;;;8.70;99.90;;;;;;5060088;28;20025;-73
2020/12/16 11:49:05;;;;;;;34.80;21.20;;;8.80;99.90;;;;;;5062417;28;20098;-73
2020/12/16 11:51:31;;;;;;;39.38;21.23;;;8.80;99.90;;;;;;5065884;28;20024;-73
2020/12/16 11:53:57;;;;;;;30.40;19.55;;;8.90;99.90;;;;;;5061936;28;20047;-73
2020/12/16 11:56:23;;;;;;;45.47;24.02;;;8.90;99.90;;;;;;5060882;28;20032;-72
2020/12/16 11:58:49;;;;;;;59.28;27.15;;;9.00;99.90;;;;;;5061618;28;20045;-74
2020/12/16 12:01:19;;;;;;;50.55;26.48;;;9.00;99.90;;;;;;5061092;28;20031;-75
2020/12/16 12:03:45;;;;;;;50.83;27.02;;;9.00;99.90;;;;;;5063033;28;20474;-75
2020/12/16 12:06:12;;;;;;;38.17;22.52;;;9.10;99.90;;;;;;5056827;28;20384;-74
2020/12/16 12:08:39;;;;;;;39.60;22.42;;;9.20;99.90;;;;;;5054418;28;20351;-74
2020/12/16 12:11:05;;;;;;;43.75;24.38;;;9.30;99.90;;;;;;5056376;28;20030;-72
2020/12/16 12:13:32;;;;;;;35.35;20.80;;;9.30;99.90;;;;;;5052259;28;20488;-73
2020/12/16 12:15:58;;;;;;;47.13;24.38;;;9.20;99.90;;;;;;5054440;28;20529;-72
2020/12/16 12:18:24;;;;;;;33.25;20.75;;;9.30;99.90;;;;;;5055251;28;20029;-72
2020/12/16 12:20:49;;;;;;;43.20;24.08;;;9.40;99.90;;;;;;5061622;28;20128;-72
2020/12/16 12:23:15;;;;;;;37.17;23.92;;;9.40;99.90;;;;;;5066362;28;20035;-72
2020/12/16 12:25:41;;;;;;;43.40;24.73;;;9.50;99.90;;;;;;5061650;28;20055;-72
2020/12/16 12:28:06;;;;;;;38.55;21.20;;;9.50;99.90;;;;;;5061587;28;20070;-74
2020/12/16 12:30:32;;;;;;;46.75;24.10;;;9.50;99.90;;;;;;5065404;28;20385;-73
2020/12/16 12:32:58;;;;;;;36.70;23.67;;;9.60;99.90;;;;;;5056657;28;20036;-71
2020/12/16 12:35:23;;;;;;;37.95;22.95;;;9.60;99.90;;;;;;5056600;28;20047;-71
2020/12/16 12:37:49;;;;;;;41.72;25.05;;;9.60;99.90;;;;;;5058561;28;20013;-72
2020/12/16 12:40:15;;;;;;;39.15;24.27;;;9.60;99.90;;;;;;5056203;28;20044;-73
2020/12/16 12:42:40;;;;;;;40.35;24.83;;;9.60;99.90;;;;;;5053320;28;20393;-73
2020/12/16 12:45:06;;;;;;;43.70;24.45;;;9.70;99.90;;;;;;5057145;28;20174;-73